sensor_id;sensor_type;location;lat;lon;timestamp;temperature;humidity
9265;DHT22;4669;49.594;10.958;2023-08-06T04:26:35;16.40;99.90
9265;DHT22;4669;49.594;10.958;2023-08-06T04:31:37;16.40;99.90
9265;DHT22;4669;49.594;10.958;2023-08-06T04:36:39;16.40;99.90
9265;DHT22;4669;49.594;10.958;2023-08-06T04:41:44;16.40;99.90
9265;DHT22;4669;49.594;10.958;2023-08-06T04:46:46;16.40;99.90
9265;DHT22;4669;49.594;10.958;2023-08-06T04:51:48;16.40;99.90
9265;DHT22;4669;49.594;10.958;2023-08-06T04:56:51;16.40;99.90
9265;DHT22;4669;49.594;10.958;2023-08-06T05:01:53;16.40;99.90
9265;DHT22;4669;49.594;10.958;2023-08-06T05:06:55;16.30;99.90
9265;DHT22;4669;49.594;10.958;2023-08-06T05:12:00;16.40;99.90
9265;DHT22;4669;49.594;10.958;2023-08-06T05:17:03;16.40;99.90
9265;DHT22;4669;49.594;10.958;2023-08-06T05:22:05;16.50;99.90
9265;DHT22;4669;49.594;10.958;2023-08-06T05:27:08;16.60;99.90
9265;DHT22;4669;49.594;10.958;2023-08-06T05:32:10;16.60;99.90
9265;DHT22;4669;49.594;10.958;2023-08-06T05:37:12;16.60;99.90
9265;DHT22;4669;49.594;10.958;2023-08-06T05:42:15;16.70;99.90
9265;DHT22;4669;49.594;10.958;2023-08-06T05:47:17;16.70;99.90
9265;DHT22;4669;49.594;10.958;2023-08-06T05:52:20;16.70;99.90
9265;DHT22;4669;49.594;10.958;2023-08-06T05:57:23;16.70;99.90
9265;DHT22;4669;49.594;10.958;2023-08-06T06:02:25;16.60;99.90
9265;DHT22;4669;49.594;10.958;2023-08-06T06:07:27;16.60;99.90
9265;DHT22;4669;49.594;10.958;2023-08-06T06:12:30;16.70;99.90
9265;DHT22;4669;49.594;10.958;2023-08-06T06:17:32;16.80;99.90
9265;DHT22;4669;49.594;10.958;2023-08-06T06:22:33;17.00;99.90
9265;DHT22;4669;49.594;10.958;2023-08-06T06:27:37;17.00;99.90
9265;DHT22;4669;49.594;10.958;2023-08-06T06:32:39;17.00;99.90
9265;DHT22;4669;49.594;10.958;2023-08-06T06:37:41;17.00;99.90
9265;DHT22;4669;49.594;10.958;2023-08-06T06:42:44;17.00;99.90
9265;DHT22;4669;49.594;10.958;2023-08-06T06:47:47;17.00;99.90
9265;DHT22;4669;49.594;10.958;2023-08-06T06:52:49;17.00;99.90
9265;DHT22;4669;49.594;10.958;2023-08-06T06:57:52;17.00;99.90
9265;DHT22;4669;49.594;10.958;2023-08-06T07:02:54;17.00;99.90
9265;DHT22;4669;49.594;10.958;2023-08-06T07:07:56;17.00;99.90
9265;DHT22;4669;49.594;10.958;2023-08-06T07:12:59;17.00;99.90
9265;DHT22;4669;49.594;10.958;2023-08-06T07:18:04;17.10;99.90
9265;DHT22;4669;49.594;10.958;2023-08-06T07:23:06;17.20;99.90
9265;DHT22;4669;49.594;10.958;2023-08-06T07:28:09;17.30;99.90
9265;DHT22;4669;49.594;10.958;2023-08-06T07:33:11;17.30;99.90
9265;DHT22;4669;49.594;10.958;2023-08-06T07:38:13;17.30;99.90
9265;DHT22;4669;49.594;10.958;2023-08-06T07:43:16;17.40;99.90
9265;DHT22;4669;49.594;10.958;2023-08-06T07:48:18;17.50;99.90
9265;DHT22;4669;49.594;10.958;2023-08-06T07:53:20;17.50;99.90
9265;DHT22;4669;49.594;10.958;2023-08-06T07:58:24;17.60;99.90
9265;DHT22;4669;49.594;10.958;2023-08-06T08:03:26;17.60;99.90
9265;DHT22;4669;49.594;10.958;2023-08-06T08:08:28;17.90;99.90
9265;DHT22;4669;49.594;10.958;2023-08-06T08:13:31;18.00;99.90
9265;DHT22;4669;49.594;10.958;2023-08-06T08:18:33;17.80;99.90
9265;DHT22;4669;49.594;10.958;2023-08-06T08:23:35;17.40;99.90
9265;DHT22;4669;49.594;10.958;2023-08-06T08:28:38;17.20;99.90
9265;DHT22;4669;49.594;10.958;2023-08-06T08:33:40;17.20;99.90
9265;DHT22;4669;49.594;10.958;2023-08-06T08:38:42;17.30;99.90
9265;DHT22;4669;49.594;10.958;2023-08-06T08:43:46;17.30;99.90
9265;DHT22;4669;49.594;10.958;2023-08-06T08:48:49;17.40;99.90
9265;DHT22;4669;49.594;10.958;2023-08-06T08:53:53;17.20;99.90
9265;DHT22;4669;49.594;10.958;2023-08-06T08:58:58;17.20;99.90
9265;DHT22;4669;49.594;10.958;2023-08-06T09:04:01;17.20;99.90
9265;DHT22;4669;49.594;10.958;2023-08-06T09:09:06;17.20;99.90
9265;DHT22;4669;49.594;10.958;2023-08-06T09:14:11;17.40;99.90
9265;DHT22;4669;49.594;10.958;2023-08-06T09:19:14;17.50;99.90
9265;DHT22;4669;49.594;10.958;2023-08-06T09:24:18;17.60;99.90
9265;DHT22;4669;49.594;10.958;2023-08-06T09:29:21;17.50;99.90
9265;DHT22;4669;49.594;10.958;2023-08-06T09:34:23;17.40;99.90
9265;DHT22;4669;49.594;10.958;2023-08-06T09:39:27;17.40;99.90
9265;DHT22;4669;49.594;10.958;2023-08-06T09:44:31;17.50;99.90
9265;DHT22;4669;49.594;10.958;2023-08-06T09:49:42;17.50;99.90
9265;DHT22;4669;49.594;10.958;2023-08-06T09:54:47;17.50;99.90
9265;DHT22;4669;49.594;10.958;2023-08-06T09:59:52;17.50;99.90
9265;DHT22;4669;49.594;10.958;2023-08-06T10:04:55;17.60;99.90
9265;DHT22;4669;49.594;10.958;2023-08-06T10:09:59;17.80;99.90
9265;DHT22;4669;49.594;10.958;2023-08-06T10:15:06;17.90;99.90
9265;DHT22;4669;49.594;10.958;2023-08-06T10:20:10;17.90;99.90
9265;DHT22;4669;49.594;10.958;2023-08-06T10:25:16;17.90;99.90
9265;DHT22;4669;49.594;10.958;2023-08-06T10:30:24;18.20;99.90
9265;DHT22;4669;49.594;10.958;2023-08-06T10:35:36;18.20;99.90
9265;DHT22;4669;49.594;10.958;2023-08-06T10:40:39;18.20;99.90
9265;DHT22;4669;49.594;10.958;2023-08-06T10:45:50;18.10;99.90
9265;DHT22;4669;49.594;10.958;2023-08-06T10:50:52;18.30;99.90
9265;DHT22;4669;49.594;10.958;2023-08-06T10:55:54;18.40;99.90
9265;DHT22;4669;49.594;10.958;2023-08-06T11:00:57;18.40;99.90
9265;DHT22;4669;49.594;10.958;2023-08-06T11:06:00;18.30;99.90
9265;DHT22;4669;49.594;10.958;2023-08-06T11:11:10;18.50;99.90
9265;DHT22;4669;49.594;10.958;2023-08-06T11:16:15;18.70;99.90
9265;DHT22;4669;49.594;10.958;2023-08-06T11:21:20;18.60;99.90
9265;DHT22;4669;49.594;10.958;2023-08-06T11:26:22;18.40;99.90
9265;DHT22;4669;49.594;10.958;2023-08-06T11:31:26;18.30;99.90
9265;DHT22;4669;49.594;10.958;2023-08-06T11:36:31;18.20;99.90
9265;DHT22;4669;49.594;10.958;2023-08-06T11:41:33;18.10;99.90
9265;DHT22;4669;49.594;10.958;2023-08-06T11:52:08;17.90;99.90
9265;DHT22;4669;49.594;10.958;2023-08-06T11:57:11;18.40;99.90
9265;DHT22;4669;49.594;10.958;2023-08-06T12:02:13;19.00;99.90
9265;DHT22;4669;49.594;10.958;2023-08-06T12:07:17;19.30;99.90
9265;DHT22;4669;49.594;10.958;2023-08-06T12:12:19;19.30;99.90
9265;DHT22;4669;49.594;10.958;2023-08-06T12:17:21;19.30;99.90
9265;DHT22;4669;49.594;10.958;2023-08-06T12:22:24;19.20;99.90
9265;DHT22;4669;49.594;10.958;2023-08-06T12:27:26;18.80;99.90
9265;DHT22;4669;49.594;10.958;2023-08-06T12:32:28;18.20;99.90
9265;DHT22;4669;49.594;10.958;2023-08-06T12:37:31;17.90;99.90
9265;DHT22;4669;49.594;10.958;2023-08-06T12:42:33;18.10;99.90
9265;DHT22;4669;49.594;10.958;2023-08-06T12:47:35;18.60;99.90
9265;DHT22;4669;49.594;10.958;2023-08-06T12:52:38;18.90;99.90
9265;DHT22;4669;49.594;10.958;2023-08-06T12:57:40;19.30;99.90
9265;DHT22;4669;49.594;10.958;2023-08-06T13:02:42;19.30;99.90
9265;DHT22;4669;49.594;10.958;2023-08-06T13:07:45;19.50;99.90
9265;DHT22;4669;49.594;10.958;2023-08-06T13:12:47;19.20;99.90
9265;DHT22;4669;49.594;10.958;2023-08-06T13:17:49;19.10;99.90
9265;DHT22;4669;49.594;10.958;2023-08-06T13:22:52;19.20;99.90
9265;DHT22;4669;49.594;10.958;2023-08-06T13:27:54;18.80;99.90
9265;DHT22;4669;49.594;10.958;2023-08-06T13:32:56;18.40;99.90
9265;DHT22;4669;49.594;10.958;2023-08-06T13:38:00;18.50;99.90
9265;DHT22;4669;49.594;10.958;2023-08-06T13:43:03;18.60;99.90
9265;DHT22;4669;49.594;10.958;2023-08-06T13:48:05;18.40;99.90
9265;DHT22;4669;49.594;10.958;2023-08-06T13:53:08;18.30;99.90
9265;DHT22;4669;49.594;10.958;2023-08-06T13:58:10;18.20;99.90
9265;DHT22;4669;49.594;10.958;2023-08-06T14:03:12;17.70;99.90
9265;DHT22;4669;49.594;10.958;2023-08-06T14:08:15;17.50;99.90
9265;DHT22;4669;49.594;10.958;2023-08-06T14:13:18;17.50;99.90
9265;DHT22;4669;49.594;10.958;2023-08-06T14:18:20;17.40;99.90
9265;DHT22;4669;49.594;10.958;2023-08-06T14:23:23;17.30;99.90
9265;DHT22;4669;49.594;10.958;2023-08-06T14:28:25;17.00;99.90
9265;DHT22;4669;49.594;10.958;2023-08-06T14:33:27;16.50;99.90
9265;DHT22;4669;49.594;10.958;2023-08-06T14:38:30;16.20;99.90
9265;DHT22;4669;49.594;10.958;2023-08-06T14:43:32;15.90;99.90
9265;DHT22;4669;49.594;10.958;2023-08-06T14:48:34;15.60;99.90
9265;DHT22;4669;49.594;10.958;2023-08-06T14:53:37;15.60;99.90
9265;DHT22;4669;49.594;10.958;2023-08-06T14:58:39;15.90;99.90
9265;DHT22;4669;49.594;10.958;2023-08-06T15:03:42;16.00;99.90
9265;DHT22;4669;49.594;10.958;2023-08-06T15:08:45;16.00;99.90
9265;DHT22;4669;49.594;10.958;2023-08-06T15:13:48;15.90;99.90
9265;DHT22;4669;49.594;10.958;2023-08-06T15:18:50;15.80;99.90
9265;DHT22;4669;49.594;10.958;2023-08-06T15:23:53;15.90;99.90
9265;DHT22;4669;49.594;10.958;2023-08-06T15:28:55;15.90;99.90
9265;DHT22;4669;49.594;10.958;2023-08-06T15:33:57;16.00;99.90
9265;DHT22;4669;49.594;10.958;2023-08-06T15:39:01;16.10;99.90
9265;DHT22;4669;49.594;10.958;2023-08-06T15:44:04;16.10;99.90
9265;DHT22;4669;49.594;10.958;2023-08-06T15:49:06;16.20;99.90
9265;DHT22;4669;49.594;10.958;2023-08-06T15:54:09;16.30;99.90
9265;DHT22;4669;49.594;10.958;2023-08-06T15:59:22;16.30;99.90
9265;DHT22;4669;49.594;10.958;2023-08-06T16:04:24;16.40;99.90
9265;DHT22;4669;49.594;10.958;2023-08-06T16:09:28;16.50;99.90
9265;DHT22;4669;49.594;10.958;2023-08-06T16:14:30;16.50;99.90
9265;DHT22;4669;49.594;10.958;2023-08-06T16:19:32;16.40;99.90
9265;DHT22;4669;49.594;10.958;2023-08-06T16:24:35;16.30;99.90
9265;DHT22;4669;49.594;10.958;2023-08-06T16:29:37;16.30;99.90
9265;DHT22;4669;49.594;10.958;2023-08-06T16:34:39;16.20;99.90
9265;DHT22;4669;49.594;10.958;2023-08-06T16:39:43;16.20;99.90
9265;DHT22;4669;49.594;10.958;2023-08-06T16:44:44;16.10;99.90
9265;DHT22;4669;49.594;10.958;2023-08-06T16:49:46;16.20;99.90
9265;DHT22;4669;49.594;10.958;2023-08-06T16:54:49;16.10;99.90
9265;DHT22;4669;49.594;10.958;2023-08-06T16:59:51;16.20;99.90
9265;DHT22;4669;49.594;10.958;2023-08-06T17:04:53;16.10;99.90
9265;DHT22;4669;49.594;10.958;2023-08-06T17:09:56;16.20;99.90
9265;DHT22;4669;49.594;10.958;2023-08-06T17:14:58;16.10;99.90
9265;DHT22;4669;49.594;10.958;2023-08-06T17:20:00;15.90;99.90
9265;DHT22;4669;49.594;10.958;2023-08-06T17:25:04;15.90;99.90
9265;DHT22;4669;49.594;10.958;2023-08-06T17:30:07;15.80;99.90
9265;DHT22;4669;49.594;10.958;2023-08-06T17:35:09;15.90;99.90
9265;DHT22;4669;49.594;10.958;2023-08-06T17:40:12;15.90;99.90
9265;DHT22;4669;49.594;10.958;2023-08-06T17:45:15;15.90;99.90
9265;DHT22;4669;49.594;10.958;2023-08-06T17:50:17;15.90;99.90
9265;DHT22;4669;49.594;10.958;2023-08-06T17:55:20;15.80;99.90
9265;DHT22;4669;49.594;10.958;2023-08-06T18:00:22;15.80;99.90
9265;DHT22;4669;49.594;10.958;2023-08-06T18:05:25;15.80;99.90
9265;DHT22;4669;49.594;10.958;2023-08-06T18:10:32;15.70;99.90
9265;DHT22;4669;49.594;10.958;2023-08-06T18:15:34;15.70;99.90
9265;DHT22;4669;49.594;10.958;2023-08-06T18:20:36;15.60;99.90
9265;DHT22;4669;49.594;10.958;2023-08-06T18:25:39;15.40;99.90
9265;DHT22;4669;49.594;10.958;2023-08-06T18:30:41;15.30;99.90
9265;DHT22;4669;49.594;10.958;2023-08-06T18:35:43;15.30;99.90
9265;DHT22;4669;49.594;10.958;2023-08-06T18:40:46;15.20;99.90
9265;DHT22;4669;49.594;10.958;2023-08-06T18:45:48;15.10;99.90
9265;DHT22;4669;49.594;10.958;2023-08-06T18:50:50;15.00;99.90
9265;DHT22;4669;49.594;10.958;2023-08-06T18:55:55;14.90;99.90
9265;DHT22;4669;49.594;10.958;2023-08-06T19:00:58;14.90;99.90
9265;DHT22;4669;49.594;10.958;2023-08-06T19:06:00;14.70;99.90
9265;DHT22;4669;49.594;10.958;2023-08-06T19:11:06;14.60;99.90
9265;DHT22;4669;49.594;10.958;2023-08-06T19:16:08;14.50;99.90
9265;DHT22;4669;49.594;10.958;2023-08-06T19:21:10;14.40;99.90
9265;DHT22;4669;49.594;10.958;2023-08-06T19:26:13;14.40;99.90
9265;DHT22;4669;49.594;10.958;2023-08-06T19:31:15;14.40;99.90
9265;DHT22;4669;49.594;10.958;2023-08-06T19:36:17;14.40;99.90
9265;DHT22;4669;49.594;10.958;2023-08-06T19:41:20;14.30;99.90
9265;DHT22;4669;49.594;10.958;2023-08-06T19:46:22;14.30;99.90
9265;DHT22;4669;49.594;10.958;2023-08-06T19:51:24;14.30;99.90
9265;DHT22;4669;49.594;10.958;2023-08-06T19:56:27;14.30;99.90
9265;DHT22;4669;49.594;10.958;2023-08-06T20:01:30;14.40;99.90
9265;DHT22;4669;49.594;10.958;2023-08-06T20:06:32;14.50;99.90
9265;DHT22;4669;49.594;10.958;2023-08-06T20:11:35;14.60;99.90
9265;DHT22;4669;49.594;10.958;2023-08-06T20:16:37;14.60;99.90
9265;DHT22;4669;49.594;10.958;2023-08-06T20:21:39;14.60;99.90
9265;DHT22;4669;49.594;10.958;2023-08-06T20:26:42;14.50;99.90
9265;DHT22;4669;49.594;10.958;2023-08-06T20:31:44;14.50;99.90
9265;DHT22;4669;49.594;10.958;2023-08-06T20:36:46;14.30;99.90
9265;DHT22;4669;49.594;10.958;2023-08-06T20:41:49;14.30;99.90
9265;DHT22;4669;49.594;10.958;2023-08-06T20:46:51;14.30;99.90
9265;DHT22;4669;49.594;10.958;2023-08-06T20:51:53;14.30;99.90
9265;DHT22;4669;49.594;10.958;2023-08-06T20:56:56;14.30;99.90
9265;DHT22;4669;49.594;10.958;2023-08-06T21:01:58;14.20;99.90
9265;DHT22;4669;49.594;10.958;2023-08-06T21:06:59;14.20;99.90
9265;DHT22;4669;49.594;10.958;2023-08-06T21:12:03;14.20;99.90
9265;DHT22;4669;49.594;10.958;2023-08-06T21:17:05;14.20;99.90
9265;DHT22;4669;49.594;10.958;2023-08-06T21:22:07;14.20;99.90
9265;DHT22;4669;49.594;10.958;2023-08-06T21:27:12;14.20;99.90
9265;DHT22;4669;49.594;10.958;2023-08-06T21:32:13;14.20;99.90
9265;DHT22;4669;49.594;10.958;2023-08-06T21:37:15;14.20;99.90
9265;DHT22;4669;49.594;10.958;2023-08-06T21:42:18;14.10;99.90
9265;DHT22;4669;49.594;10.958;2023-08-06T21:47:20;14.10;99.90
9265;DHT22;4669;49.594;10.958;2023-08-06T21:52:22;14.10;99.90
9265;DHT22;4669;49.594;10.958;2023-08-06T21:57:25;14.00;99.90
